createdAt,value
2022-09-26T00:00:43.814Z,10.95
2022-09-26T00:03:20.011Z,11.63
2022-09-26T00:05:55.471Z,9.77
2022-09-26T00:08:30.568Z,12.25
2022-09-26T00:11:09.192Z,14.65
2022-09-26T00:13:46.136Z,13.40
2022-09-26T00:16:21.202Z,14.63
2022-09-26T00:18:57.159Z,12.60
2022-09-26T00:21:33.646Z,13.00
2022-09-26T00:24:10.065Z,15.70
2022-09-26T00:26:47.402Z,13.07
2022-09-26T00:29:22.889Z,11.10
2022-09-26T00:31:58.471Z,16.42
2022-09-26T00:34:34.032Z,15.35
2022-09-26T00:37:09.052Z,14.73
2022-09-26T00:39:46.325Z,10.15
2022-09-26T00:42:26.907Z,13.70
2022-09-26T00:45:02.723Z,9.15
2022-09-26T00:47:49.203Z,10.45
2022-09-26T00:50:29.194Z,8.60
2022-09-26T00:53:08.236Z,12.02
2022-09-26T00:55:48.704Z,10.57
2022-09-26T00:58:30.152Z,11.48
2022-09-26T01:01:07.632Z,10.75
2022-09-26T01:03:46.835Z,7.80
2022-09-26T01:06:23.192Z,9.30
2022-09-26T01:09:02.938Z,8.60
2022-09-26T01:11:38.468Z,9.93
2022-09-26T01:14:17.489Z,10.48
2022-09-26T01:16:56.017Z,9.23
2022-09-26T01:19:41.048Z,9.63
2022-09-26T01:22:24.807Z,6.38
2022-09-26T01:25:09.115Z,7.10
2022-09-26T01:27:59.435Z,5.70
2022-09-26T01:30:41.199Z,5.72
2022-09-26T01:33:30.675Z,7.45
2022-09-26T01:36:17.111Z,8.95
2022-09-26T01:38:56.140Z,8.45
2022-09-26T01:41:42.451Z,9.68
2022-09-26T01:44:21.035Z,6.40
2022-09-26T01:47:01.859Z,8.57
2022-09-26T01:49:39.276Z,9.52
2022-09-26T01:52:19.017Z,7.20
2022-09-26T01:54:59.766Z,8.98
2022-09-26T01:57:38.348Z,10.13
2022-09-26T02:00:15.676Z,6.22
2022-09-26T02:02:53.418Z,10.73
2022-09-26T02:05:32.074Z,8.10
2022-09-26T02:08:14.022Z,7.63
2022-09-26T02:10:54.367Z,7.45
2022-09-26T02:13:31.616Z,8.93
2022-09-26T02:16:08.030Z,7.82
2022-09-26T02:18:47.908Z,8.35
2022-09-26T02:21:27.326Z,11.95
2022-09-26T02:24:02.565Z,5.78
2022-09-26T02:26:37.790Z,6.57
2022-09-26T02:29:13.714Z,6.20
2022-09-26T02:31:55.442Z,6.43
2022-09-26T02:34:34.941Z,8.23
2022-09-26T02:37:11.187Z,9.38
2022-09-26T02:39:49.544Z,8.80
2022-09-26T02:42:38.734Z,9.05
2022-09-26T02:45:24.570Z,7.75
2022-09-26T02:48:24.315Z,6.70
2022-09-26T02:51:22.285Z,4.95
2022-09-26T02:54:18.410Z,4.63
2022-09-26T02:57:10.485Z,9.70
2022-09-26T02:59:55.831Z,5.45
2022-09-26T03:02:40.128Z,4.93
2022-09-26T03:05:27.829Z,6.93
2022-09-26T03:08:09.444Z,8.52
2022-09-26T03:10:46.843Z,6.10
2022-09-26T03:13:42.271Z,6.97
2022-09-26T03:16:18.646Z,6.10
2022-09-26T03:18:59.710Z,8.98
2022-09-26T03:21:37.189Z,8.57
2022-09-26T03:24:14.645Z,7.18
2022-09-26T03:26:50.861Z,8.43
2022-09-26T03:29:26.431Z,6.90
2022-09-26T03:32:02.106Z,5.68
2022-09-26T03:34:41.492Z,11.15
2022-09-26T03:37:20.745Z,6.22
2022-09-26T03:39:57.982Z,6.28
2022-09-26T03:42:53.785Z,5.53
2022-09-26T03:45:30.393Z,6.68
2022-09-26T03:48:10.356Z,6.65
2022-09-26T03:50:48.148Z,7.90
2022-09-26T03:53:25.226Z,10.13
2022-09-26T03:56:09.865Z,9.40
2022-09-26T03:58:47.532Z,7.10
2022-09-26T04:01:24.192Z,6.75
2022-09-26T04:04:00.536Z,4.82
2022-09-26T04:06:36.845Z,7.72
2022-09-26T04:09:19.306Z,6.72
2022-09-26T04:12:02.037Z,6.35
2022-09-26T04:14:37.671Z,7.70
2022-09-26T04:17:12.706Z,7.60
2022-09-26T04:19:51.024Z,4.25
2022-09-26T04:22:26.906Z,4.80
2022-09-26T04:25:02.776Z,5.18
2022-09-26T04:27:39.887Z,4.38
2022-09-26T04:30:15.775Z,7.90
2022-09-26T04:32:59.463Z,7.75
2022-09-26T04:35:44.713Z,6.30
2022-09-26T04:38:20.293Z,4.25
2022-09-26T04:40:54.551Z,5.05
2022-09-26T04:43:50.622Z,6.85
2022-09-26T04:46:46.379Z,4.10
2022-09-26T04:49:23.524Z,5.28
2022-09-26T04:51:59.128Z,5.38
2022-09-26T04:54:34.364Z,5.80
2022-09-26T04:57:09.467Z,4.95
2022-09-26T04:59:46.671Z,4.72
2022-09-26T05:02:22.614Z,4.70
2022-09-26T05:05:01.506Z,4.65
2022-09-26T05:07:36.626Z,5.70
2022-09-26T05:10:13.402Z,6.75
2022-09-26T05:12:58.489Z,5.38
2022-09-26T05:15:57.721Z,5.22
2022-09-26T05:18:35.385Z,4.53
2022-09-26T05:21:11.415Z,5.00
2022-09-26T05:24:03.687Z,5.97
2022-09-26T05:26:45.511Z,5.00
2022-09-26T05:29:23.530Z,7.38
2022-09-26T05:32:15.479Z,4.93
2022-09-26T05:34:50.755Z,4.10
2022-09-26T05:37:28.837Z,4.55
2022-09-26T05:40:23.169Z,3.88
2022-09-26T05:43:06.260Z,6.05
2022-09-26T05:45:41.839Z,4.88
2022-09-26T05:48:22.470Z,6.65
2022-09-26T05:50:57.734Z,5.55
2022-09-26T05:53:32.769Z,4.85
2022-09-26T05:56:09.538Z,4.57
2022-09-26T05:59:00.219Z,5.82
2022-09-26T06:02:18.608Z,5.53
2022-09-26T06:05:18.433Z,5.15
2022-09-26T06:08:11.592Z,7.07
2022-09-26T06:10:51.945Z,6.25
2022-09-26T06:13:27.102Z,5.20
2022-09-26T06:16:07.345Z,6.07
2022-09-26T06:18:43.744Z,8.07
2022-09-26T06:21:23.403Z,4.55
2022-09-26T06:24:08.450Z,5.10
2022-09-26T06:26:44.189Z,5.53
2022-09-26T06:29:20.654Z,5.47
2022-09-26T06:31:56.169Z,8.98
2022-09-26T06:34:49.684Z,7.13
2022-09-26T06:38:00.790Z,5.35
2022-09-26T06:40:36.985Z,5.63
2022-09-26T06:43:12.862Z,4.35
2022-09-26T06:46:06.910Z,5.93
2022-09-26T06:49:04.735Z,5.57
2022-09-26T06:52:13.236Z,4.80
2022-09-26T06:54:50.555Z,5.45
2022-09-26T06:57:25.562Z,5.97
2022-09-26T07:00:04.237Z,5.97
2022-09-26T07:03:00.483Z,5.32
2022-09-26T07:05:53.465Z,8.05
2022-09-26T07:08:50.477Z,5.72
2022-09-26T07:11:56.274Z,5.68
2022-09-26T07:14:25.287Z,7.45
2022-09-26T07:17:09.545Z,6.68
2022-09-26T07:20:12.205Z,5.13
2022-09-26T07:23:23.547Z,7.10
2022-09-26T07:25:58.943Z,5.70
2022-09-26T07:28:36.509Z,6.40
2022-09-26T07:31:11.875Z,6.43
2022-09-26T07:34:18.473Z,7.53
2022-09-26T07:36:54.204Z,4.57
2022-09-26T07:39:32.153Z,7.53
2022-09-26T07:42:09.011Z,5.88
2022-09-26T07:47:56.533Z,7.13
2022-09-26T07:51:01.854Z,6.72
2022-09-26T07:53:53.408Z,7.50
2022-09-26T07:56:41.033Z,6.65
2022-09-26T07:59:41.679Z,5.75
2022-09-26T08:02:30.829Z,4.82
2022-09-26T08:05:07.163Z,5.63
2022-09-26T08:07:42.276Z,4.55
2022-09-26T08:10:43.487Z,8.13
2022-09-26T08:13:38.689Z,7.47
2022-09-26T08:16:52.926Z,8.93
2022-09-26T08:19:34.160Z,7.43
2022-09-26T08:22:13.229Z,5.95
2022-09-26T08:24:51.445Z,6.00
2022-09-26T08:27:54.786Z,5.95
2022-09-26T08:30:32.958Z,7.32
2022-09-26T08:33:15.680Z,7.43
2022-09-26T08:36:00.779Z,8.20
2022-09-26T08:38:59.303Z,8.07
2022-09-26T08:41:58.191Z,9.20
2022-09-26T08:45:29.425Z,6.22
2022-09-26T08:48:40.669Z,5.90
2022-09-26T08:51:32.025Z,6.68
2022-09-26T08:54:12.843Z,8.02
2022-09-26T08:56:48.896Z,8.88
2022-09-26T08:59:28.416Z,8.00
2022-09-26T09:02:06.786Z,7.10
2022-09-26T09:05:11.320Z,9.10
2022-09-26T09:07:59.090Z,9.73
2022-09-26T09:10:45.111Z,6.18
2022-09-26T09:14:08.397Z,7.22
2022-09-26T09:17:15.808Z,7.00
2022-09-26T09:20:35.852Z,9.48
2022-09-26T09:23:53.540Z,8.07
2022-09-26T09:30:00.884Z,8.30
2022-09-26T09:33:19.566Z,6.65
2022-09-26T09:36:11.374Z,7.05
2022-09-26T09:39:11.552Z,8.77
2022-09-26T09:42:02.440Z,7.82
2022-09-26T09:44:48.136Z,6.30
2022-09-26T09:47:25.119Z,8.60
2022-09-26T09:50:03.592Z,8.27
2022-09-26T09:52:52.010Z,6.65
2022-09-26T09:55:44.818Z,7.43
2022-09-26T09:58:43.928Z,5.22
2022-09-26T10:01:27.295Z,6.18
2022-09-26T10:04:11.797Z,6.72
2022-09-26T10:06:47.527Z,8.75
2022-09-26T10:09:37.617Z,7.80
2022-09-26T10:12:38.421Z,7.72
2022-09-26T10:15:32.924Z,5.15
2022-09-26T10:18:25.585Z,6.28
2022-09-26T10:21:20.550Z,8.25
2022-09-26T10:23:56.591Z,7.28
2022-09-26T10:26:56.147Z,6.00
2022-09-26T10:29:45.876Z,9.63
2022-09-26T10:32:24.177Z,8.95
2022-09-26T10:35:21.293Z,9.73
2022-09-26T10:38:04.615Z,9.55
2022-09-26T10:40:51.024Z,10.27
2022-09-26T10:43:30.326Z,10.18
2022-09-26T10:46:18.330Z,9.50
2022-09-26T10:49:20.757Z,7.88
2022-09-26T10:52:32.660Z,8.60
2022-09-26T10:55:14.070Z,8.43
2022-09-26T10:57:50.974Z,7.40
2022-09-26T11:00:42.067Z,7.35
2022-09-26T11:03:48.384Z,7.88
2022-09-26T11:06:32.884Z,7.35
2022-09-26T11:09:24.610Z,7.43
2022-09-26T11:12:01.448Z,9.10
2022-09-26T11:14:48.910Z,12.25
2022-09-26T11:17:28.275Z,7.70
2022-09-26T11:20:11.155Z,7.95
2022-09-26T11:22:52.906Z,10.20
2022-09-26T11:25:32.786Z,8.60
2022-09-26T11:28:14.217Z,11.18
2022-09-26T11:31:12.533Z,11.75
2022-09-26T11:34:18.662Z,9.73
2022-09-26T11:37:12.723Z,10.07
2022-09-26T11:40:00.098Z,7.15
2022-09-26T11:43:02.955Z,8.00
2022-09-26T11:45:47.328Z,12.30
2022-09-26T11:48:54.430Z,10.27
2022-09-26T11:51:55.820Z,10.40
2022-09-26T11:54:58.625Z,7.25
2022-09-26T11:57:50.345Z,7.95
2022-09-26T12:00:30.768Z,9.82
2022-09-26T12:03:48.715Z,8.93
2022-09-26T12:06:29.346Z,8.63
2022-09-26T12:09:18.268Z,9.50
2022-09-26T12:12:17.488Z,8.10
2022-09-26T12:15:09.834Z,9.45
2022-09-26T12:17:58.525Z,7.72
2022-09-26T12:20:42.518Z,12.18
2022-09-26T12:23:22.094Z,8.40
2022-09-26T12:26:16.075Z,9.25
2022-09-26T12:29:08.580Z,12.23
2022-09-26T12:31:54.130Z,9.50
2022-09-26T12:34:44.193Z,8.93
2022-09-26T12:37:27.774Z,8.95
2022-09-26T12:40:17.935Z,7.72
2022-09-26T12:43:00.469Z,10.23
2022-09-26T12:45:53.036Z,12.43
2022-09-26T12:48:35.951Z,8.82
2022-09-26T12:51:23.876Z,10.75
2022-09-26T12:54:07.166Z,9.02
2022-09-26T12:56:52.694Z,8.90
2022-09-26T12:59:40.723Z,9.15
2022-09-26T13:02:38.485Z,7.03
2022-09-26T13:05:29.712Z,10.65
2022-09-26T13:08:14.242Z,8.50
2022-09-26T13:11:04.266Z,7.20
2022-09-26T13:14:22.134Z,8.02
2022-09-26T13:17:02.064Z,7.68
2022-09-26T13:19:41.094Z,12.80
2022-09-26T13:22:29.212Z,9.35
2022-09-26T13:25:11.695Z,10.48
2022-09-26T13:27:50.177Z,11.02
2022-09-26T13:30:27.861Z,10.10
2022-09-26T13:33:08.033Z,7.95
2022-09-26T13:35:49.482Z,10.60
2022-09-26T13:38:33.790Z,8.75
2022-09-26T13:41:14.548Z,11.15
2022-09-26T13:43:55.180Z,12.27
2022-09-26T13:46:37.753Z,8.18
2022-09-26T13:49:28.000Z,9.77
2022-09-26T13:52:13.329Z,9.27
2022-09-26T13:55:02.253Z,14.77
2022-09-26T13:57:42.006Z,9.20
2022-09-26T14:00:37.398Z,7.97
2022-09-26T14:03:29.911Z,9.80
2022-09-26T14:06:13.019Z,9.52
2022-09-26T14:09:16.916Z,8.60
2022-09-26T14:11:54.256Z,9.48
2022-09-26T14:14:42.952Z,12.13
2022-09-26T14:17:34.143Z,7.13
2022-09-26T14:20:10.366Z,9.27
2022-09-26T14:22:54.321Z,8.85
2022-09-26T14:25:45.865Z,11.05
2022-09-26T14:28:33.085Z,8.75
2022-09-26T14:31:21.136Z,9.35
2022-09-26T14:34:00.025Z,8.23
2022-09-26T14:36:39.515Z,10.25
2022-09-26T14:39:30.244Z,10.18
2022-09-26T14:42:12.089Z,12.00
2022-09-26T14:44:53.799Z,12.95
2022-09-26T14:47:28.760Z,14.07
2022-09-26T14:50:10.191Z,10.50
2022-09-26T14:52:46.652Z,9.55
2022-09-26T14:55:22.881Z,7.32
2022-09-26T14:58:33.492Z,10.23
2022-09-26T15:01:16.765Z,8.52
2022-09-26T15:04:01.073Z,10.00
2022-09-26T15:06:42.921Z,9.82
2022-09-26T15:09:22.987Z,10.77
2022-09-26T15:12:02.481Z,12.32
2022-09-26T15:14:43.388Z,12.52
2022-09-26T15:17:31.451Z,9.07
2022-09-26T15:20:11.590Z,10.18
2022-09-26T15:22:47.230Z,7.90
2022-09-26T15:25:27.382Z,10.10
2022-09-26T15:28:03.839Z,13.68
2022-09-26T15:30:42.365Z,8.25
2022-09-26T15:33:23.584Z,9.57
2022-09-26T15:35:59.296Z,13.23
2022-09-26T15:38:35.238Z,10.88
2022-09-26T15:41:10.288Z,14.35
2022-09-26T15:43:43.957Z,8.07
2022-09-26T15:46:29.470Z,7.57
2022-09-26T15:49:06.609Z,9.00
2022-09-26T15:51:43.665Z,8.43
2022-09-26T15:54:25.201Z,13.00
2022-09-26T15:57:03.605Z,9.85
2022-09-26T15:59:43.233Z,14.70
2022-09-26T16:02:28.950Z,7.82
2022-09-26T16:05:09.508Z,9.85
2022-09-26T16:07:54.477Z,8.15
2022-09-26T16:10:34.946Z,11.27
2022-09-26T16:13:10.420Z,8.35
2022-09-26T16:15:46.501Z,12.20
2022-09-26T16:18:31.851Z,11.55
2022-09-26T16:21:24.137Z,7.72
2022-09-26T16:24:00.838Z,10.40
2022-09-26T16:26:44.747Z,6.30
2022-09-26T16:29:36.300Z,8.80
2022-09-26T16:32:22.436Z,7.03
2022-09-26T16:34:57.624Z,10.70
2022-09-26T16:37:35.125Z,8.90
2022-09-26T16:40:11.983Z,9.35
2022-09-26T16:42:47.975Z,9.45
2022-09-26T16:45:23.350Z,9.68
2022-09-26T16:47:58.643Z,8.07
2022-09-26T16:50:37.633Z,11.82
2022-09-26T16:53:16.771Z,10.25
2022-09-26T16:55:51.767Z,8.82
2022-09-26T16:58:26.803Z,10.52
2022-09-26T17:01:18.718Z,9.80
2022-09-26T17:03:54.734Z,8.60
2022-09-26T17:06:30.132Z,9.82
2022-09-26T17:09:18.409Z,9.13
2022-09-26T17:11:56.281Z,10.45
2022-09-26T17:14:40.204Z,9.25
2022-09-26T17:17:23.361Z,8.40
2022-09-26T17:19:59.766Z,9.85
2022-09-26T17:22:36.358Z,9.60
2022-09-26T17:25:17.893Z,10.15
2022-09-26T17:27:56.779Z,7.90
2022-09-26T17:30:34.078Z,7.95
2022-09-26T17:33:09.745Z,9.93
2022-09-26T17:35:46.119Z,7.60
2022-09-26T17:38:21.661Z,7.25
2022-09-26T17:40:59.290Z,7.20
2022-09-26T17:43:35.812Z,10.57
2022-09-26T17:46:15.883Z,8.05
2022-09-26T17:48:51.504Z,10.02
2022-09-26T17:51:26.918Z,10.55
2022-09-26T17:54:02.069Z,8.13
2022-09-26T17:56:39.964Z,9.52
2022-09-26T17:59:26.050Z,8.13
2022-09-26T18:02:27.922Z,9.02
2022-09-26T18:05:05.188Z,12.20
2022-09-26T18:07:43.595Z,11.40
2022-09-26T18:10:23.107Z,8.75
2022-09-26T18:13:03.235Z,9.13
2022-09-26T18:15:39.183Z,8.20
2022-09-26T18:18:18.829Z,8.38
2022-09-26T18:20:56.894Z,10.05
2022-09-26T18:23:34.313Z,8.57
2022-09-26T18:26:11.308Z,9.15
2022-09-26T18:28:48.677Z,8.20
2022-09-26T18:31:30.073Z,8.55
2022-09-26T18:34:08.277Z,9.95
2022-09-26T18:36:43.326Z,10.65
2022-09-26T18:39:18.360Z,13.23
2022-09-26T18:41:58.858Z,11.38
2022-09-26T18:44:37.132Z,9.70
2022-09-26T18:47:19.225Z,9.25
2022-09-26T18:49:54.340Z,9.98
2022-09-26T18:52:29.696Z,8.85
2022-09-26T18:55:21.128Z,9.73
2022-09-26T18:58:12.051Z,9.43
2022-09-26T19:00:49.700Z,10.23
2022-09-26T19:03:27.356Z,9.23
2022-09-26T19:06:07.866Z,11.32
2022-09-26T19:08:44.598Z,8.50
2022-09-26T19:11:21.286Z,8.52
2022-09-26T19:13:57.947Z,11.23
2022-09-26T19:16:35.043Z,10.40
2022-09-26T19:19:10.337Z,8.30
2022-09-26T19:21:50.772Z,8.35
2022-09-26T19:24:29.529Z,9.30
2022-09-26T19:27:08.084Z,11.63
2022-09-26T19:29:45.710Z,11.70
2022-09-26T19:32:26.698Z,10.00
2022-09-26T19:35:03.860Z,9.82
2022-09-26T19:37:38.935Z,11.13
2022-09-26T19:40:19.505Z,8.65
2022-09-26T19:42:55.124Z,7.88
2022-09-26T19:45:33.063Z,10.40
2022-09-26T19:48:10.924Z,8.73
2022-09-26T19:50:47.812Z,12.65
2022-09-26T19:53:24.882Z,10.82
2022-09-26T19:56:00.277Z,12.07
2022-09-26T19:58:35.518Z,12.93
2022-09-26T20:01:20.896Z,8.32
2022-09-26T20:04:27.548Z,14.23
2022-09-26T20:07:03.964Z,8.55
2022-09-26T20:09:39.687Z,8.57
2022-09-26T20:12:16.526Z,6.70
2022-09-26T20:14:52.994Z,9.55
2022-09-26T20:17:31.209Z,12.82
2022-09-26T20:20:11.998Z,12.40
2022-09-26T20:22:48.133Z,11.98
2022-09-26T20:25:28.358Z,12.05
2022-09-26T20:28:04.562Z,9.93
2022-09-26T20:30:56.986Z,10.88
2022-09-26T20:33:33.099Z,12.07
2022-09-26T20:36:11.806Z,9.85
2022-09-26T20:38:50.713Z,11.65
2022-09-26T20:41:28.698Z,12.90
2022-09-26T20:44:08.608Z,11.05
2022-09-26T20:46:47.214Z,11.65
2022-09-26T20:49:25.897Z,9.70
2022-09-26T20:52:04.399Z,10.25
2022-09-26T20:54:39.691Z,12.05
2022-09-26T20:57:16.584Z,13.18
2022-09-26T20:59:52.340Z,14.13
2022-09-26T21:02:33.614Z,13.48
2022-09-26T21:05:19.653Z,11.38
2022-09-26T21:08:00.163Z,14.52
2022-09-26T21:10:36.182Z,13.35
2022-09-26T21:13:13.277Z,14.27
2022-09-26T21:15:48.872Z,14.15
2022-09-26T21:18:29.449Z,12.60
2022-09-26T21:21:08.563Z,12.52
2022-09-26T21:24:02.506Z,12.40
2022-09-26T21:26:39.443Z,13.43
2022-09-26T21:29:22.512Z,13.20
2022-09-26T21:32:01.047Z,13.68
2022-09-26T21:34:38.039Z,13.50
2022-09-26T21:37:14.745Z,11.68
2022-09-26T21:39:55.470Z,15.77
2022-09-26T21:42:31.625Z,12.82
2022-09-26T21:45:10.106Z,13.32
2022-09-26T21:47:48.439Z,13.95
2022-09-26T21:50:23.577Z,13.95
2022-09-26T21:53:02.227Z,11.52
2022-09-26T21:55:42.273Z,14.43
2022-09-26T21:58:21.315Z,16.45
2022-09-26T22:00:59.352Z,16.42
2022-09-26T22:03:36.343Z,14.45
2022-09-26T22:06:14.007Z,18.73
2022-09-26T22:08:49.783Z,16.95
2022-09-26T22:11:28.013Z,15.07
2022-09-26T22:14:03.215Z,18.38
2022-09-26T22:16:39.245Z,18.38
2022-09-26T22:19:14.761Z,15.52
2022-09-26T22:21:49.929Z,17.25
2022-09-26T22:24:25.269Z,15.90
2022-09-26T22:27:02.340Z,16.90
2022-09-26T22:29:37.914Z,20.45
2022-09-26T22:32:15.109Z,19.85
2022-09-26T22:34:50.843Z,17.85
2022-09-26T22:37:26.268Z,17.42
2022-09-26T22:40:01.844Z,17.70
2022-09-26T22:42:39.472Z,21.38
2022-09-26T22:45:15.398Z,19.52
2022-09-26T22:47:51.703Z,19.17
2022-09-26T22:50:26.690Z,19.40
2022-09-26T22:53:03.892Z,23.48
2022-09-26T22:55:39.600Z,21.08
2022-09-26T22:58:17.551Z,18.35
2022-09-26T23:00:53.280Z,17.23
2022-09-26T23:03:28.262Z,20.15
2022-09-26T23:06:04.793Z,17.77
2022-09-26T23:08:41.623Z,18.52
2022-09-26T23:11:19.167Z,21.67
2022-09-26T23:13:58.549Z,20.17
2022-09-26T23:16:33.624Z,16.88
2022-09-26T23:19:09.214Z,17.08
2022-09-26T23:21:44.442Z,14.43
2022-09-26T23:24:19.646Z,21.48
2022-09-26T23:26:55.311Z,18.40
2022-09-26T23:29:33.656Z,16.45
2022-09-26T23:32:08.694Z,17.88
2022-09-26T23:34:44.290Z,15.50
2022-09-26T23:37:19.523Z,17.67
2022-09-26T23:39:54.746Z,22.80
2022-09-26T23:42:31.599Z,23.92
2022-09-26T23:45:11.997Z,17.85
2022-09-26T23:47:48.055Z,18.70
2022-09-26T23:50:23.133Z,18.48
2022-09-26T23:52:58.310Z,15.70
2022-09-26T23:55:38.749Z,16.80
2022-09-26T23:58:14.996Z,14.98
